Terminal Aerodrome Forecast
Issued by NWS

Home | Current Version | Previous Version | Text Only | Print | Product List | Glossary On
Versions: 1 2 3 4 5 6 7 8 9 10 11 12
910
FTPA31 PHFO 291122
TAFHMK
TAF
PHMK 291122Z 2912/3012 03005KT P6SM FEW035
     FM292100 33007KT P6SM SCT035
     FM300500 02005KT P6SM FEW035=

USA.gov is the U.S. government's official web portal to all federal, state and local government web resources and services.